createdAt,value
2022-08-26T00:01:29.155Z,42.30
2022-08-26T00:03:56.937Z,42.30
2022-08-26T00:06:24.844Z,42.20
2022-08-26T00:08:51.797Z,42.20
2022-08-26T00:11:26.847Z,42.10
2022-08-26T00:13:55.021Z,42.10
2022-08-26T00:16:23.649Z,42.00
2022-08-26T00:18:50.598Z,42.00
2022-08-26T00:21:17.849Z,42.00
2022-08-26T00:23:45.011Z,42.00
2022-08-26T00:26:12.362Z,41.90
2022-08-26T00:28:39.645Z,41.90
2022-08-26T00:31:07.492Z,41.90
2022-08-26T00:33:38.493Z,41.80
2022-08-26T00:36:06.100Z,41.80
2022-08-26T00:38:33.508Z,41.80
2022-08-26T00:41:00.573Z,41.70
2022-08-26T00:43:27.559Z,41.60
2022-08-26T00:46:01.063Z,41.40
2022-08-26T00:48:31.828Z,41.60
2022-08-26T00:51:19.079Z,41.70
2022-08-26T00:53:49.092Z,41.70
2022-08-26T00:56:22.360Z,41.90
2022-08-26T00:58:50.047Z,42.00
2022-08-26T01:01:17.197Z,41.90
2022-08-26T01:03:44.838Z,41.90
2022-08-26T01:06:13.257Z,42.00
2022-08-26T01:08:40.849Z,42.00
2022-08-26T01:11:08.227Z,41.90
2022-08-26T01:13:36.303Z,41.80
2022-08-26T01:16:04.262Z,41.80
2022-08-26T01:18:31.690Z,41.70
2022-08-26T01:21:11.588Z,41.80
2022-08-26T01:23:40.787Z,41.70
2022-08-26T01:26:18.247Z,41.80
2022-08-26T01:28:51.448Z,41.80
2022-08-26T01:31:21.057Z,41.80
2022-08-26T01:33:52.788Z,41.90
2022-08-26T01:36:20.202Z,41.80
2022-08-26T01:38:47.779Z,41.70
2022-08-26T01:41:16.340Z,41.80
2022-08-26T01:43:48.438Z,41.90
2022-08-26T01:46:16.113Z,41.90
2022-08-26T01:48:44.735Z,41.90
2022-08-26T01:51:12.056Z,42.00
2022-08-26T01:53:39.592Z,42.00
2022-08-26T01:56:09.832Z,42.10
2022-08-26T01:58:43.274Z,42.10
2022-08-26T02:01:10.988Z,42.10
2022-08-26T02:03:56.473Z,42.10
2022-08-26T02:06:24.850Z,42.10
2022-08-26T02:08:53.038Z,42.10
2022-08-26T02:11:20.084Z,42.10
2022-08-26T02:13:49.439Z,42.10
2022-08-26T02:16:19.392Z,42.10
2022-08-26T02:18:47.069Z,42.10
2022-08-26T02:21:14.080Z,42.10
2022-08-26T02:23:41.604Z,42.10
2022-08-26T02:26:13.102Z,42.00
2022-08-26T02:28:50.387Z,41.90
2022-08-26T02:31:17.326Z,41.90
2022-08-26T02:33:44.293Z,41.90
2022-08-26T02:36:12.105Z,41.90
2022-08-26T02:38:40.289Z,41.90
2022-08-26T02:41:11.423Z,42.00
2022-08-26T02:43:38.275Z,41.90
2022-08-26T02:46:06.068Z,42.00
2022-08-26T02:48:33.229Z,41.90
2022-08-26T02:51:03.380Z,41.90
2022-08-26T02:53:31.930Z,41.90
2022-08-26T02:55:59.176Z,42.00
2022-08-26T02:58:26.951Z,42.00
2022-08-26T03:00:54.039Z,42.00
2022-08-26T03:03:23.569Z,42.00
2022-08-26T03:05:51.036Z,42.00
2022-08-26T03:08:17.883Z,41.90
2022-08-26T03:10:44.743Z,41.90
2022-08-26T03:13:11.698Z,42.00
2022-08-26T03:15:39.100Z,41.90
2022-08-26T03:18:06.828Z,42.00
2022-08-26T03:20:34.194Z,42.10
2022-08-26T03:23:02.814Z,42.10
2022-08-26T03:25:31.261Z,42.10
2022-08-26T03:27:59.406Z,42.10
2022-08-26T03:30:44.223Z,42.10
2022-08-26T03:33:12.763Z,42.10
2022-08-26T03:35:41.858Z,42.10
2022-08-26T03:38:09.236Z,42.00
2022-08-26T03:40:37.236Z,41.90
2022-08-26T03:43:05.008Z,41.90
2022-08-26T03:45:32.755Z,41.90
2022-08-26T03:48:00.073Z,41.90
2022-08-26T03:50:27.255Z,42.00
2022-08-26T03:52:54.932Z,42.00
2022-08-26T03:55:24.079Z,41.90
2022-08-26T03:57:51.294Z,41.70
2022-08-26T04:00:18.768Z,41.70
2022-08-26T04:02:47.048Z,41.80
2022-08-26T04:05:14.848Z,41.90
2022-08-26T04:07:42.879Z,41.90
2022-08-26T04:10:11.717Z,41.90
2022-08-26T04:12:40.414Z,42.00
2022-08-26T04:15:10.531Z,42.00
2022-08-26T04:17:37.561Z,42.00
2022-08-26T04:20:05.920Z,41.90
2022-08-26T04:22:34.246Z,41.90
2022-08-26T04:25:01.461Z,41.90
2022-08-26T04:27:28.788Z,41.90
2022-08-26T04:29:55.601Z,41.90
2022-08-26T04:32:22.571Z,41.90
2022-08-26T04:34:49.519Z,41.80
2022-08-26T04:37:16.563Z,41.90
2022-08-26T04:39:44.721Z,41.90
2022-08-26T04:42:13.517Z,41.90
2022-08-26T04:44:41.439Z,42.00
2022-08-26T04:47:08.258Z,41.90
2022-08-26T04:49:35.963Z,42.00
2022-08-26T04:52:03.983Z,42.10
2022-08-26T04:54:31.852Z,42.10
2022-08-26T04:56:59.349Z,42.10
2022-08-26T04:59:26.290Z,42.10
2022-08-26T05:01:57.446Z,42.20
2022-08-26T05:04:24.447Z,42.20
2022-08-26T05:06:53.433Z,42.30
2022-08-26T05:09:22.942Z,42.40
2022-08-26T05:11:52.384Z,42.50
2022-08-26T05:14:19.845Z,42.50
2022-08-26T05:16:47.918Z,42.60
2022-08-26T05:19:19.019Z,42.60
2022-08-26T05:21:47.296Z,42.60
2022-08-26T05:24:14.674Z,42.70
2022-08-26T05:26:41.900Z,42.80
2022-08-26T05:29:11.752Z,42.90
2022-08-26T05:31:38.648Z,43.00
2022-08-26T05:34:06.020Z,43.00
2022-08-26T05:36:35.080Z,43.20
2022-08-26T05:39:02.993Z,43.40
2022-08-26T05:41:36.659Z,43.50
2022-08-26T05:44:06.809Z,43.50
2022-08-26T05:46:34.745Z,43.60
2022-08-26T05:49:02.954Z,43.50
2022-08-26T05:51:30.902Z,43.60
2022-08-26T05:53:58.408Z,43.70
2022-08-26T05:56:31.356Z,43.90
2022-08-26T05:58:58.698Z,44.10
2022-08-26T06:01:27.650Z,44.30
2022-08-26T06:03:56.322Z,44.50
2022-08-26T06:06:33.736Z,44.70
2022-08-26T06:09:01.960Z,44.90
2022-08-26T06:11:29.901Z,45.00
2022-08-26T06:14:03.108Z,45.10
2022-08-26T06:16:32.001Z,45.30
2022-08-26T06:18:58.839Z,45.50
2022-08-26T06:21:28.433Z,45.60
2022-08-26T06:24:14.973Z,45.80
2022-08-26T06:26:42.949Z,46.00
2022-08-26T06:29:15.420Z,46.10
2022-08-26T06:31:52.251Z,46.20
2022-08-26T06:34:19.056Z,46.40
2022-08-26T06:36:47.539Z,46.60
2022-08-26T06:39:15.155Z,46.90
2022-08-26T06:41:43.907Z,47.00
2022-08-26T06:44:11.403Z,47.00
2022-08-26T06:46:39.822Z,46.80
2022-08-26T06:49:06.690Z,46.90
2022-08-26T06:51:36.865Z,47.00
2022-08-26T06:54:04.679Z,46.80
2022-08-26T06:56:39.936Z,46.80
2022-08-26T06:59:08.716Z,46.80
2022-08-26T07:01:39.093Z,46.80
2022-08-26T07:04:10.437Z,46.80
2022-08-26T07:06:39.156Z,46.80
2022-08-26T07:09:06.751Z,47.00
2022-08-26T07:11:37.692Z,47.20
2022-08-26T07:14:06.180Z,47.30
2022-08-26T07:16:33.340Z,47.50
2022-08-26T07:19:01.154Z,47.90
2022-08-26T07:21:30.270Z,48.00
2022-08-26T07:24:01.598Z,48.30
2022-08-26T07:26:30.632Z,48.70
2022-08-26T07:28:58.232Z,49.00
2022-08-26T07:31:27.501Z,49.30
2022-08-26T07:33:55.014Z,49.50
2022-08-26T07:36:23.213Z,49.80
2022-08-26T07:38:50.626Z,50.20
2022-08-26T07:41:19.199Z,50.50
2022-08-26T07:43:46.370Z,50.90
2022-08-26T07:46:20.865Z,51.10
2022-08-26T07:48:54.794Z,51.40
2022-08-26T07:51:22.732Z,51.50
2022-08-26T07:53:50.523Z,51.50
2022-08-26T07:56:20.176Z,51.50
2022-08-26T07:58:51.373Z,51.70
2022-08-26T08:01:19.053Z,51.80
2022-08-26T08:03:46.161Z,52.00
2022-08-26T08:06:18.108Z,52.10
2022-08-26T08:08:44.991Z,52.20
2022-08-26T08:11:12.370Z,52.20
2022-08-26T08:13:39.403Z,52.00
2022-08-26T08:16:07.833Z,51.90
2022-08-26T08:18:40.483Z,51.90
2022-08-26T08:21:23.602Z,52.20
2022-08-26T08:23:52.311Z,52.20
2022-08-26T08:26:19.233Z,52.50
2022-08-26T08:28:47.926Z,52.50
2022-08-26T08:31:52.037Z,52.50
2022-08-26T08:34:09.042Z,52.60
2022-08-26T08:36:36.418Z,52.40
2022-08-26T08:39:04.127Z,52.30
2022-08-26T08:41:52.031Z,52.30
2022-08-26T08:44:20.496Z,52.40
2022-08-26T08:46:58.391Z,52.60
2022-08-26T08:49:26.076Z,52.60
2022-08-26T08:52:09.628Z,52.90
2022-08-26T08:54:38.285Z,52.80
2022-08-26T08:57:12.230Z,52.80
2022-08-26T08:59:47.660Z,53.00
2022-08-26T09:02:14.715Z,53.30
2022-08-26T09:04:43.499Z,53.50
2022-08-26T09:07:13.584Z,53.50
2022-08-26T09:09:49.101Z,53.70
2022-08-26T09:12:29.843Z,53.40
2022-08-26T09:15:01.122Z,53.20
2022-08-26T09:17:43.408Z,53.20
2022-08-26T09:20:14.134Z,53.50
2022-08-26T09:22:44.137Z,53.60
2022-08-26T09:25:12.858Z,53.60
2022-08-26T09:27:47.481Z,53.70
2022-08-26T09:30:23.457Z,53.90
2022-08-26T09:32:59.600Z,54.20
2022-08-26T09:35:26.449Z,54.30
2022-08-26T09:37:53.275Z,54.30
2022-08-26T09:40:24.177Z,54.20
2022-08-26T09:43:22.294Z,54.30
2022-08-26T09:45:58.464Z,54.40
2022-08-26T09:48:26.505Z,54.50
2022-08-26T09:50:55.420Z,54.60
2022-08-26T09:53:28.650Z,54.60
2022-08-26T09:56:12.668Z,54.70
2022-08-26T09:58:41.933Z,54.70
2022-08-26T10:01:24.475Z,54.60
2022-08-26T10:03:51.944Z,54.80
2022-08-26T10:06:20.986Z,55.00
2022-08-26T10:08:55.424Z,55.10
2022-08-26T10:11:22.283Z,55.40
2022-08-26T10:13:52.873Z,55.50
2022-08-26T10:16:22.305Z,55.50
2022-08-26T10:18:59.908Z,55.90
2022-08-26T10:21:39.699Z,56.10
2022-08-26T10:24:07.548Z,56.30
2022-08-26T10:26:57.661Z,56.40
2022-08-26T10:29:29.638Z,56.70
2022-08-26T10:32:03.686Z,56.60
2022-08-26T10:34:31.826Z,56.50
2022-08-26T10:37:13.697Z,56.50
2022-08-26T10:39:47.142Z,56.20
2022-08-26T10:42:24.108Z,56.30
2022-08-26T10:44:52.362Z,56.10
2022-08-26T10:47:26.017Z,56.10
2022-08-26T10:49:57.508Z,56.00
2022-08-26T10:52:46.512Z,56.00
2022-08-26T10:55:20.775Z,56.00
2022-08-26T10:57:53.065Z,56.30
2022-08-26T11:00:59.780Z,56.30
2022-08-26T11:03:34.728Z,56.30
2022-08-26T11:06:20.104Z,56.30
2022-08-26T11:08:48.008Z,56.20
2022-08-26T11:11:40.797Z,56.30
2022-08-26T11:14:33.996Z,56.40
2022-08-26T11:17:11.826Z,56.40
2022-08-26T11:19:59.502Z,56.50
2022-08-26T11:22:28.805Z,56.60
2022-08-26T11:24:55.782Z,56.60
2022-08-26T11:27:28.952Z,56.90
2022-08-26T11:30:01.938Z,56.90
2022-08-26T11:32:34.709Z,56.90
2022-08-26T11:35:04.909Z,57.10
2022-08-26T11:37:35.574Z,57.30
2022-08-26T11:40:07.036Z,57.30
2022-08-26T11:42:34.441Z,57.40
2022-08-26T11:45:05.678Z,57.30
2022-08-26T11:47:32.785Z,57.00
2022-08-26T11:50:10.739Z,57.00
2022-08-26T11:52:37.566Z,57.00
2022-08-26T11:55:04.334Z,57.10
2022-08-26T11:57:33.888Z,57.30
2022-08-26T12:00:01.973Z,57.10
2022-08-26T12:02:29.277Z,57.10
2022-08-26T12:04:56.405Z,57.10
2022-08-26T12:07:27.129Z,56.80
2022-08-26T12:09:57.810Z,56.60
2022-08-26T12:12:29.193Z,56.40
2022-08-26T12:15:18.655Z,56.30
2022-08-26T12:17:49.413Z,56.10
2022-08-26T12:20:48.742Z,56.00
2022-08-26T12:23:22.455Z,55.90
2022-08-26T12:25:52.483Z,55.80
2022-08-26T12:28:21.589Z,55.50
2022-08-26T12:31:04.390Z,55.30
2022-08-26T12:33:33.152Z,55.20
2022-08-26T12:36:02.110Z,55.30
2022-08-26T12:38:29.868Z,55.40
2022-08-26T12:40:57.222Z,55.50
2022-08-26T12:43:43.539Z,55.60
2022-08-26T12:46:16.397Z,55.60
2022-08-26T12:48:46.613Z,55.70
2022-08-26T12:51:24.824Z,55.70
2022-08-26T12:53:51.934Z,55.70
2022-08-26T12:56:20.926Z,55.70
2022-08-26T12:59:00.575Z,55.70
2022-08-26T13:01:27.674Z,55.40
2022-08-26T13:03:54.665Z,55.10
2022-08-26T13:06:22.394Z,55.10
2022-08-26T13:08:49.385Z,55.10
2022-08-26T13:11:20.653Z,55.00
2022-08-26T13:13:49.578Z,54.90
2022-08-26T13:16:16.851Z,55.10
2022-08-26T13:18:43.781Z,55.00
2022-08-26T13:21:17.091Z,55.00
2022-08-26T13:23:44.765Z,54.90
2022-08-26T13:26:12.159Z,54.80
2022-08-26T13:28:39.078Z,54.90
2022-08-26T13:31:06.098Z,54.80
2022-08-26T13:33:33.409Z,54.60
2022-08-26T13:36:00.966Z,54.50
2022-08-26T13:38:33.645Z,54.30
2022-08-26T13:41:02.920Z,54.20
2022-08-26T13:43:30.763Z,53.90
2022-08-26T13:45:57.710Z,53.90
2022-08-26T13:48:24.612Z,53.70
2022-08-26T13:50:52.260Z,53.70
2022-08-26T13:53:19.279Z,53.40
2022-08-26T13:55:46.208Z,53.60
2022-08-26T13:58:13.997Z,53.40
2022-08-26T14:00:41.960Z,53.20
2022-08-26T14:03:13.221Z,53.20
2022-08-26T14:05:40.967Z,52.80
2022-08-26T14:08:08.343Z,52.30
2022-08-26T14:10:35.656Z,51.70
2022-08-26T14:13:02.851Z,50.80
2022-08-26T14:15:36.017Z,49.90
2022-08-26T14:18:04.096Z,49.20
2022-08-26T14:20:31.838Z,48.40
2022-08-26T14:23:13.015Z,47.90
2022-08-26T14:25:43.642Z,47.50
2022-08-26T14:28:10.522Z,47.00
2022-08-26T14:30:39.289Z,46.50
2022-08-26T14:33:06.285Z,45.90
2022-08-26T14:35:33.317Z,45.60
2022-08-26T14:38:00.238Z,45.40
2022-08-26T14:40:29.534Z,45.30
2022-08-26T14:43:09.016Z,45.20
2022-08-26T14:45:37.470Z,45.40
2022-08-26T14:48:04.471Z,45.10
2022-08-26T14:50:32.812Z,44.80
2022-08-26T14:53:18.322Z,44.50
2022-08-26T14:55:45.876Z,44.30
2022-08-26T14:58:12.736Z,44.50
2022-08-26T15:00:39.978Z,44.40
2022-08-26T15:03:07.309Z,44.20
2022-08-26T15:05:34.561Z,44.20
2022-08-26T15:08:02.896Z,44.20
2022-08-26T15:10:29.982Z,44.20
2022-08-26T15:12:56.900Z,44.20
2022-08-26T15:15:24.255Z,44.00
2022-08-26T15:17:51.517Z,43.90
2022-08-26T15:20:18.668Z,43.80
2022-08-26T15:22:45.589Z,43.80
2022-08-26T15:25:13.251Z,43.80
2022-08-26T15:27:40.573Z,44.10
2022-08-26T15:30:09.915Z,44.20
2022-08-26T15:32:36.916Z,44.30
2022-08-26T15:35:08.696Z,44.20
2022-08-26T15:37:36.196Z,43.90
2022-08-26T15:40:03.812Z,43.90
2022-08-26T15:42:30.852Z,43.90
2022-08-26T15:44:57.803Z,44.00
2022-08-26T15:47:24.766Z,44.00
2022-08-26T15:49:51.905Z,44.00
2022-08-26T15:52:18.751Z,44.10
2022-08-26T15:54:45.630Z,44.20
2022-08-26T15:57:14.391Z,44.10
2022-08-26T15:59:42.290Z,44.10
2022-08-26T16:02:09.756Z,44.10
2022-08-26T16:04:36.735Z,43.90
2022-08-26T16:07:04.422Z,43.90
2022-08-26T16:09:31.290Z,43.70
2022-08-26T16:11:58.813Z,43.50
2022-08-26T16:14:26.341Z,43.60
2022-08-26T16:16:54.091Z,43.40
2022-08-26T16:19:21.331Z,43.60
2022-08-26T16:21:48.416Z,43.60
2022-08-26T16:24:15.343Z,43.30
2022-08-26T16:26:42.766Z,43.30
2022-08-26T16:29:11.912Z,43.50
2022-08-26T16:31:39.348Z,43.60
2022-08-26T16:34:06.989Z,43.50
2022-08-26T16:36:34.304Z,43.80
2022-08-26T16:39:01.275Z,43.70
2022-08-26T16:41:29.769Z,43.50
2022-08-26T16:43:57.053Z,43.60
2022-08-26T16:46:25.943Z,43.40
2022-08-26T16:48:53.721Z,43.40
2022-08-26T16:51:23.180Z,43.50
2022-08-26T16:53:50.770Z,43.30
2022-08-26T16:56:19.857Z,43.40
2022-08-26T16:58:48.475Z,43.50
2022-08-26T17:01:16.073Z,43.70
2022-08-26T17:03:43.371Z,43.80
2022-08-26T17:06:10.397Z,43.70
2022-08-26T17:08:38.210Z,43.50
2022-08-26T17:11:05.512Z,43.70
2022-08-26T17:13:35.418Z,43.50
2022-08-26T17:16:07.616Z,43.20
2022-08-26T17:18:35.062Z,43.40
2022-08-26T17:21:03.251Z,43.30
2022-08-26T17:23:30.499Z,43.30
2022-08-26T17:25:57.555Z,43.20
2022-08-26T17:28:24.570Z,43.10
2022-08-26T17:30:51.417Z,43.00
2022-08-26T17:33:21.981Z,42.90
2022-08-26T17:35:51.569Z,43.10
2022-08-26T17:38:18.575Z,43.00
2022-08-26T17:40:45.422Z,42.80
2022-08-26T17:43:12.560Z,42.80
2022-08-26T17:45:40.619Z,42.80
2022-08-26T17:48:10.011Z,42.80
2022-08-26T17:50:38.553Z,42.60
2022-08-26T17:53:07.773Z,42.40
2022-08-26T17:55:36.788Z,42.40
2022-08-26T17:58:04.025Z,42.50
2022-08-26T18:00:34.733Z,42.50
2022-08-26T18:03:01.604Z,42.50
2022-08-26T18:05:29.778Z,42.40
2022-08-26T18:07:56.653Z,42.30
2022-08-26T18:10:25.704Z,42.20
2022-08-26T18:12:52.622Z,42.10
2022-08-26T18:15:19.718Z,42.10
2022-08-26T18:17:46.594Z,42.10
2022-08-26T18:20:15.733Z,42.30
2022-08-26T18:22:42.879Z,42.30
2022-08-26T18:25:10.235Z,42.10
2022-08-26T18:27:37.593Z,42.30
2022-08-26T18:30:09.817Z,42.20
2022-08-26T18:32:39.314Z,42.20
2022-08-26T18:35:06.427Z,42.10
2022-08-26T18:37:34.309Z,42.00
2022-08-26T18:40:01.291Z,42.10
2022-08-26T18:42:28.569Z,42.00
2022-08-26T18:44:55.416Z,42.10
2022-08-26T18:47:22.936Z,41.90
2022-08-26T18:49:49.775Z,41.90
2022-08-26T18:52:16.771Z,41.80
2022-08-26T18:54:44.160Z,41.90
2022-08-26T18:57:12.219Z,41.80
2022-08-26T18:59:39.145Z,41.70
2022-08-26T19:02:06.417Z,41.70
2022-08-26T19:04:33.384Z,41.70
2022-08-26T19:07:00.429Z,41.70
2022-08-26T19:09:27.430Z,41.70
2022-08-26T19:14:26.693Z,41.70
2022-08-26T19:16:53.838Z,41.70
2022-08-26T19:19:22.157Z,41.70
2022-08-26T19:21:49.271Z,41.70
2022-08-26T19:24:17.699Z,41.70
2022-08-26T19:26:45.728Z,41.60
2022-08-26T19:29:13.375Z,41.50
2022-08-26T19:31:41.471Z,41.70
2022-08-26T19:34:10.884Z,41.70
2022-08-26T19:36:39.225Z,41.70
2022-08-26T19:39:09.954Z,41.60
2022-08-26T19:41:38.114Z,41.70
2022-08-26T19:44:08.131Z,41.60
2022-08-26T19:46:36.483Z,41.50
2022-08-26T19:49:03.869Z,41.60
2022-08-26T19:51:32.437Z,41.70
2022-08-26T19:53:59.841Z,41.70
2022-08-26T19:56:28.204Z,41.70
2022-08-26T19:58:55.609Z,41.60
2022-08-26T20:01:22.869Z,41.50
2022-08-26T20:03:50.112Z,41.50
2022-08-26T20:06:17.165Z,41.60
2022-08-26T20:08:44.712Z,41.60
2022-08-26T20:11:14.686Z,41.60
2022-08-26T20:13:41.948Z,41.70
2022-08-26T20:16:10.450Z,41.80
2022-08-26T20:18:56.154Z,41.80
2022-08-26T20:21:29.537Z,41.80
2022-08-26T20:24:17.403Z,41.90
2022-08-26T20:26:44.797Z,41.90
2022-08-26T20:29:14.102Z,41.80
2022-08-26T20:31:41.524Z,41.70
2022-08-26T20:34:08.558Z,41.70
2022-08-26T20:36:35.458Z,41.70
2022-08-26T20:39:02.422Z,41.60
2022-08-26T20:41:29.365Z,41.70
2022-08-26T20:43:56.652Z,41.80
2022-08-26T20:46:25.456Z,41.90
2022-08-26T20:48:54.811Z,42.10
2022-08-26T20:51:24.608Z,42.10
2022-08-26T20:53:51.552Z,42.20
2022-08-26T20:56:23.738Z,42.20
2022-08-26T20:58:51.765Z,42.10
2022-08-26T21:01:20.231Z,42.00
2022-08-26T21:03:48.061Z,42.00
2022-08-26T21:06:15.149Z,41.90
2022-08-26T21:08:43.259Z,41.90
2022-08-26T21:11:11.719Z,41.90
2022-08-26T21:14:01.215Z,41.90
2022-08-26T21:16:25.783Z,41.80
2022-08-26T21:18:52.925Z,41.80
2022-08-26T21:21:25.194Z,41.80
2022-08-26T21:23:52.286Z,41.90
2022-08-26T21:26:19.201Z,42.00
2022-08-26T21:28:46.614Z,42.00
2022-08-26T21:31:15.312Z,42.10
2022-08-26T21:33:42.704Z,42.10
2022-08-26T21:36:10.309Z,42.20
2022-08-26T21:38:37.691Z,42.10
2022-08-26T21:41:07.169Z,42.10
2022-08-26T21:43:35.470Z,42.10
2022-08-26T21:46:04.278Z,42.10
2022-08-26T21:48:33.195Z,42.10
2022-08-26T21:51:04.773Z,42.10
2022-08-26T21:53:31.751Z,42.10
2022-08-26T21:55:58.736Z,42.10
2022-08-26T21:58:25.691Z,42.20
2022-08-26T22:00:52.683Z,42.30
2022-08-26T22:03:19.624Z,42.30
2022-08-26T22:05:47.554Z,42.30
2022-08-26T22:08:15.146Z,42.30
2022-08-26T22:10:42.401Z,42.30
2022-08-26T22:13:09.968Z,42.30
2022-08-26T22:15:40.513Z,42.30
2022-08-26T22:18:09.035Z,42.30
2022-08-26T22:20:36.080Z,42.10
2022-08-26T22:23:03.294Z,41.90
2022-08-26T22:25:30.161Z,41.90
2022-08-26T22:27:57.074Z,42.00
2022-08-26T22:30:24.393Z,42.00
2022-08-26T22:32:51.330Z,42.00
2022-08-26T22:35:29.053Z,42.10
2022-08-26T22:37:57.139Z,42.10
2022-08-26T22:40:24.477Z,42.00
2022-08-26T22:42:57.838Z,42.10
2022-08-26T22:45:26.160Z,42.00
2022-08-26T22:47:53.073Z,42.00
2022-08-26T22:50:19.991Z,42.00
2022-08-26T22:52:46.908Z,42.00
2022-08-26T22:55:14.449Z,42.00
2022-08-26T22:57:42.210Z,42.00
2022-08-26T23:00:11.910Z,42.00
2022-08-26T23:02:38.828Z,42.00
2022-08-26T23:05:06.599Z,42.00
2022-08-26T23:07:34.123Z,42.10
2022-08-26T23:10:01.323Z,42.10
2022-08-26T23:12:28.229Z,42.10
2022-08-26T23:14:55.420Z,42.10
2022-08-26T23:17:22.383Z,42.00
2022-08-26T23:19:49.260Z,42.00
2022-08-26T23:22:18.228Z,42.00
2022-08-26T23:24:45.234Z,42.10
2022-08-26T23:27:12.129Z,42.10
2022-08-26T23:29:39.854Z,42.00
2022-08-26T23:32:06.809Z,42.00
2022-08-26T23:34:52.159Z,41.90
2022-08-26T23:37:19.782Z,41.90
2022-08-26T23:39:47.796Z,41.80
2022-08-26T23:42:14.770Z,41.70
2022-08-26T23:44:41.789Z,41.70
2022-08-26T23:47:08.651Z,41.70
2022-08-26T23:49:36.106Z,41.60
2022-08-26T23:52:34.758Z,41.60
2022-08-26T23:55:01.693Z,41.80
2022-08-26T23:57:28.635Z,41.80
